sensor_id;sensor_type;location;lat;lon;timestamp;P1;durP1;ratioP1;P2;durP2;ratioP2
76656;SDS011;65576;47.714;9.414;2023-07-29T00:00:20;3.95;;;2.08;;
76656;SDS011;65576;47.714;9.414;2023-07-29T00:02:46;4.80;;;2.10;;
76656;SDS011;65576;47.714;9.414;2023-07-29T00:05:11;4.10;;;2.00;;
76656;SDS011;65576;47.714;9.414;2023-07-29T00:07:37;3.22;;;2.00;;
76656;SDS011;65576;47.714;9.414;2023-07-29T00:10:02;3.05;;;1.88;;
76656;SDS011;65576;47.714;9.414;2023-07-29T00:12:28;2.35;;;1.90;;
76656;SDS011;65576;47.714;9.414;2023-07-29T00:14:53;2.75;;;2.05;;
76656;SDS011;65576;47.714;9.414;2023-07-29T00:17:19;2.90;;;1.95;;
76656;SDS011;65576;47.714;9.414;2023-07-29T00:19:45;3.05;;;1.98;;
76656;SDS011;65576;47.714;9.414;2023-07-29T00:22:10;3.50;;;2.30;;
76656;SDS011;65576;47.714;9.414;2023-07-29T00:24:36;2.15;;;1.80;;
76656;SDS011;65576;47.714;9.414;2023-07-29T00:27:01;2.28;;;1.70;;
76656;SDS011;65576;47.714;9.414;2023-07-29T00:29:26;3.88;;;2.75;;
76656;SDS011;65576;47.714;9.414;2023-07-29T00:31:52;3.17;;;1.88;;
76656;SDS011;65576;47.714;9.414;2023-07-29T00:34:17;3.70;;;2.30;;
76656;SDS011;65576;47.714;9.414;2023-07-29T00:36:44;2.30;;;2.00;;
76656;SDS011;65576;47.714;9.414;2023-07-29T00:39:12;2.78;;;2.05;;
76656;SDS011;65576;47.714;9.414;2023-07-29T00:41:38;3.92;;;2.25;;
76656;SDS011;65576;47.714;9.414;2023-07-29T00:44:03;3.88;;;2.30;;
76656;SDS011;65576;47.714;9.414;2023-07-29T00:46:28;3.95;;;2.33;;
76656;SDS011;65576;47.714;9.414;2023-07-29T00:48:54;4.72;;;2.00;;
76656;SDS011;65576;47.714;9.414;2023-07-29T00:51:20;3.78;;;2.05;;
76656;SDS011;65576;47.714;9.414;2023-07-29T00:53:45;3.03;;;2.03;;
76656;SDS011;65576;47.714;9.414;2023-07-29T00:56:11;3.30;;;1.92;;
76656;SDS011;65576;47.714;9.414;2023-07-29T00:58:36;2.92;;;1.98;;
76656;SDS011;65576;47.714;9.414;2023-07-29T01:01:03;2.08;;;1.85;;
76656;SDS011;65576;47.714;9.414;2023-07-29T01:03:28;5.70;;;2.60;;
76656;SDS011;65576;47.714;9.414;2023-07-29T01:06:12;2.45;;;1.80;;
76656;SDS011;65576;47.714;9.414;2023-07-29T01:08:51;2.60;;;1.85;;
76656;SDS011;65576;47.714;9.414;2023-07-29T01:11:24;2.65;;;1.90;;
76656;SDS011;65576;47.714;9.414;2023-07-29T01:16:26;3.92;;;1.90;;
76656;SDS011;65576;47.714;9.414;2023-07-29T01:18:56;3.22;;;2.10;;
76656;SDS011;65576;47.714;9.414;2023-07-29T01:21:23;3.70;;;2.10;;
76656;SDS011;65576;47.714;9.414;2023-07-29T01:23:57;2.83;;;2.00;;
76656;SDS011;65576;47.714;9.414;2023-07-29T01:26:24;3.72;;;1.95;;
76656;SDS011;65576;47.714;9.414;2023-07-29T01:28:49;1.75;;;1.42;;
76656;SDS011;65576;47.714;9.414;2023-07-29T01:31:23;6.85;;;1.60;;
76656;SDS011;65576;47.714;9.414;2023-07-29T01:33:53;2.63;;;2.03;;
76656;SDS011;65576;47.714;9.414;2023-07-29T01:36:23;2.28;;;1.70;;
76656;SDS011;65576;47.714;9.414;2023-07-29T01:38:52;2.85;;;2.20;;
76656;SDS011;65576;47.714;9.414;2023-07-29T01:41:19;4.55;;;2.30;;
76656;SDS011;65576;47.714;9.414;2023-07-29T01:43:45;3.35;;;2.10;;
76656;SDS011;65576;47.714;9.414;2023-07-29T01:46:11;4.68;;;1.85;;
76656;SDS011;65576;47.714;9.414;2023-07-29T01:48:37;4.50;;;2.17;;
76656;SDS011;65576;47.714;9.414;2023-07-29T01:51:03;3.38;;;2.05;;
76656;SDS011;65576;47.714;9.414;2023-07-29T01:53:29;3.40;;;1.95;;
76656;SDS011;65576;47.714;9.414;2023-07-29T01:55:54;3.80;;;2.00;;
76656;SDS011;65576;47.714;9.414;2023-07-29T01:58:21;2.92;;;1.90;;
76656;SDS011;65576;47.714;9.414;2023-07-29T02:00:47;4.28;;;2.28;;
76656;SDS011;65576;47.714;9.414;2023-07-29T02:03:12;2.53;;;1.92;;
76656;SDS011;65576;47.714;9.414;2023-07-29T02:05:38;2.95;;;1.90;;
76656;SDS011;65576;47.714;9.414;2023-07-29T02:08:03;4.45;;;1.98;;
76656;SDS011;65576;47.714;9.414;2023-07-29T02:10:28;2.15;;;1.40;;
76656;SDS011;65576;47.714;9.414;2023-07-29T02:12:54;3.28;;;1.90;;
76656;SDS011;65576;47.714;9.414;2023-07-29T02:15:19;1.67;;;1.50;;
76656;SDS011;65576;47.714;9.414;2023-07-29T02:17:44;3.20;;;1.92;;
76656;SDS011;65576;47.714;9.414;2023-07-29T02:20:10;3.58;;;1.60;;
76656;SDS011;65576;47.714;9.414;2023-07-29T02:22:35;3.33;;;1.60;;
76656;SDS011;65576;47.714;9.414;2023-07-29T02:25:01;3.00;;;1.80;;
76656;SDS011;65576;47.714;9.414;2023-07-29T02:27:27;3.78;;;1.45;;
76656;SDS011;65576;47.714;9.414;2023-07-29T02:29:53;2.25;;;1.85;;
76656;SDS011;65576;47.714;9.414;2023-07-29T02:32:18;2.63;;;2.05;;
76656;SDS011;65576;47.714;9.414;2023-07-29T02:34:44;3.15;;;1.60;;
76656;SDS011;65576;47.714;9.414;2023-07-29T02:37:09;2.40;;;1.60;;
76656;SDS011;65576;47.714;9.414;2023-07-29T02:39:35;2.55;;;1.98;;
76656;SDS011;65576;47.714;9.414;2023-07-29T02:42:00;4.60;;;1.85;;
76656;SDS011;65576;47.714;9.414;2023-07-29T02:44:25;2.85;;;1.80;;
76656;SDS011;65576;47.714;9.414;2023-07-29T02:46:50;4.30;;;2.00;;
76656;SDS011;65576;47.714;9.414;2023-07-29T02:49:17;3.35;;;1.80;;
76656;SDS011;65576;47.714;9.414;2023-07-29T02:51:42;3.00;;;1.80;;
76656;SDS011;65576;47.714;9.414;2023-07-29T02:54:07;2.95;;;1.98;;
76656;SDS011;65576;47.714;9.414;2023-07-29T02:56:33;3.05;;;1.88;;
76656;SDS011;65576;47.714;9.414;2023-07-29T02:58:58;2.28;;;1.67;;
76656;SDS011;65576;47.714;9.414;2023-07-29T03:01:24;2.85;;;2.00;;
76656;SDS011;65576;47.714;9.414;2023-07-29T03:03:50;5.82;;;2.38;;
76656;SDS011;65576;47.714;9.414;2023-07-29T03:06:15;2.90;;;2.10;;
76656;SDS011;65576;47.714;9.414;2023-07-29T03:08:41;4.30;;;2.33;;
76656;SDS011;65576;47.714;9.414;2023-07-29T03:11:10;5.22;;;2.80;;
76656;SDS011;65576;47.714;9.414;2023-07-29T03:13:37;3.42;;;1.63;;
76656;SDS011;65576;47.714;9.414;2023-07-29T03:18:35;3.08;;;2.25;;
76656;SDS011;65576;47.714;9.414;2023-07-29T03:21:01;3.88;;;1.77;;
76656;SDS011;65576;47.714;9.414;2023-07-29T03:23:30;3.78;;;1.73;;
76656;SDS011;65576;47.714;9.414;2023-07-29T03:25:57;4.10;;;1.95;;
76656;SDS011;65576;47.714;9.414;2023-07-29T03:28:27;3.05;;;2.10;;
76656;SDS011;65576;47.714;9.414;2023-07-29T03:30:54;2.80;;;1.70;;
76656;SDS011;65576;47.714;9.414;2023-07-29T03:33:20;4.95;;;2.08;;
76656;SDS011;65576;47.714;9.414;2023-07-29T03:35:45;4.15;;;2.00;;
76656;SDS011;65576;47.714;9.414;2023-07-29T03:38:11;3.25;;;2.13;;
76656;SDS011;65576;47.714;9.414;2023-07-29T03:40:37;2.30;;;1.80;;
76656;SDS011;65576;47.714;9.414;2023-07-29T03:43:03;4.28;;;1.83;;
76656;SDS011;65576;47.714;9.414;2023-07-29T03:45:28;4.80;;;1.83;;
76656;SDS011;65576;47.714;9.414;2023-07-29T03:47:53;2.97;;;2.10;;
76656;SDS011;65576;47.714;9.414;2023-07-29T03:50:19;9.27;;;2.30;;
76656;SDS011;65576;47.714;9.414;2023-07-29T03:52:44;2.03;;;1.60;;
76656;SDS011;65576;47.714;9.414;2023-07-29T03:55:09;2.78;;;1.70;;
76656;SDS011;65576;47.714;9.414;2023-07-29T03:57:35;2.58;;;1.88;;
76656;SDS011;65576;47.714;9.414;2023-07-29T04:00:00;2.78;;;2.00;;
76656;SDS011;65576;47.714;9.414;2023-07-29T04:02:25;2.67;;;1.60;;
76656;SDS011;65576;47.714;9.414;2023-07-29T04:04:51;3.92;;;2.30;;
76656;SDS011;65576;47.714;9.414;2023-07-29T04:07:16;2.70;;;1.65;;
76656;SDS011;65576;47.714;9.414;2023-07-29T04:09:42;1.85;;;1.73;;
76656;SDS011;65576;47.714;9.414;2023-07-29T04:12:08;2.47;;;1.83;;
76656;SDS011;65576;47.714;9.414;2023-07-29T04:14:33;3.85;;;1.98;;
76656;SDS011;65576;47.714;9.414;2023-07-29T04:16:59;5.57;;;1.92;;
76656;SDS011;65576;47.714;9.414;2023-07-29T04:19:24;3.17;;;2.17;;
76656;SDS011;65576;47.714;9.414;2023-07-29T04:21:49;2.10;;;1.83;;
76656;SDS011;65576;47.714;9.414;2023-07-29T04:24:15;3.90;;;2.20;;
76656;SDS011;65576;47.714;9.414;2023-07-29T04:26:41;4.03;;;2.25;;
76656;SDS011;65576;47.714;9.414;2023-07-29T04:29:06;3.63;;;2.28;;
76656;SDS011;65576;47.714;9.414;2023-07-29T04:31:31;2.78;;;1.85;;
76656;SDS011;65576;47.714;9.414;2023-07-29T04:33:57;2.30;;;1.77;;
76656;SDS011;65576;47.714;9.414;2023-07-29T04:36:22;1.83;;;1.70;;
76656;SDS011;65576;47.714;9.414;2023-07-29T04:38:47;2.67;;;1.92;;
76656;SDS011;65576;47.714;9.414;2023-07-29T04:41:12;3.65;;;2.22;;
76656;SDS011;65576;47.714;9.414;2023-07-29T04:43:38;2.50;;;1.90;;
76656;SDS011;65576;47.714;9.414;2023-07-29T04:46:06;2.90;;;1.75;;
76656;SDS011;65576;47.714;9.414;2023-07-29T04:48:32;3.25;;;1.98;;
76656;SDS011;65576;47.714;9.414;2023-07-29T04:50:57;2.67;;;1.98;;
76656;SDS011;65576;47.714;9.414;2023-07-29T04:53:23;2.50;;;1.80;;
76656;SDS011;65576;47.714;9.414;2023-07-29T04:55:48;2.28;;;1.90;;
76656;SDS011;65576;47.714;9.414;2023-07-29T04:58:13;3.92;;;2.30;;
76656;SDS011;65576;47.714;9.414;2023-07-29T05:00:39;3.15;;;2.38;;
76656;SDS011;65576;47.714;9.414;2023-07-29T05:03:04;5.10;;;2.63;;
76656;SDS011;65576;47.714;9.414;2023-07-29T05:05:29;3.63;;;2.47;;
76656;SDS011;65576;47.714;9.414;2023-07-29T05:07:54;6.15;;;2.85;;
76656;SDS011;65576;47.714;9.414;2023-07-29T05:10:20;4.20;;;2.40;;
76656;SDS011;65576;47.714;9.414;2023-07-29T05:12:45;2.97;;;1.88;;
76656;SDS011;65576;47.714;9.414;2023-07-29T05:15:10;3.15;;;1.98;;
76656;SDS011;65576;47.714;9.414;2023-07-29T05:17:36;2.47;;;1.92;;
76656;SDS011;65576;47.714;9.414;2023-07-29T05:20:01;2.95;;;2.20;;
76656;SDS011;65576;47.714;9.414;2023-07-29T05:22:27;3.13;;;2.30;;
76656;SDS011;65576;47.714;9.414;2023-07-29T05:24:52;3.05;;;2.10;;
76656;SDS011;65576;47.714;9.414;2023-07-29T05:27:18;2.65;;;2.08;;
76656;SDS011;65576;47.714;9.414;2023-07-29T05:29:43;3.45;;;2.22;;
76656;SDS011;65576;47.714;9.414;2023-07-29T05:32:08;7.43;;;2.50;;
76656;SDS011;65576;47.714;9.414;2023-07-29T05:34:34;3.75;;;2.45;;
76656;SDS011;65576;47.714;9.414;2023-07-29T05:36:59;2.70;;;2.13;;
76656;SDS011;65576;47.714;9.414;2023-07-29T05:39:24;2.75;;;1.63;;
76656;SDS011;65576;47.714;9.414;2023-07-29T05:41:50;3.05;;;1.90;;
76656;SDS011;65576;47.714;9.414;2023-07-29T05:44:15;5.45;;;2.20;;
76656;SDS011;65576;47.714;9.414;2023-07-29T05:46:40;4.63;;;2.45;;
76656;SDS011;65576;47.714;9.414;2023-07-29T05:49:06;4.28;;;2.63;;
76656;SDS011;65576;47.714;9.414;2023-07-29T05:51:31;3.75;;;2.50;;
76656;SDS011;65576;47.714;9.414;2023-07-29T05:53:56;3.25;;;2.28;;
76656;SDS011;65576;47.714;9.414;2023-07-29T05:56:22;3.15;;;2.22;;
76656;SDS011;65576;47.714;9.414;2023-07-29T05:58:47;4.30;;;1.98;;
76656;SDS011;65576;47.714;9.414;2023-07-29T06:01:12;4.30;;;2.33;;
76656;SDS011;65576;47.714;9.414;2023-07-29T06:03:38;2.90;;;1.88;;
76656;SDS011;65576;47.714;9.414;2023-07-29T06:06:03;2.55;;;2.05;;
76656;SDS011;65576;47.714;9.414;2023-07-29T06:08:28;3.42;;;2.30;;
76656;SDS011;65576;47.714;9.414;2023-07-29T06:10:54;3.70;;;2.20;;
76656;SDS011;65576;47.714;9.414;2023-07-29T06:13:19;3.78;;;2.13;;
76656;SDS011;65576;47.714;9.414;2023-07-29T06:15:44;2.80;;;2.00;;
76656;SDS011;65576;47.714;9.414;2023-07-29T06:18:10;3.83;;;2.17;;
76656;SDS011;65576;47.714;9.414;2023-07-29T06:20:35;3.95;;;2.10;;
76656;SDS011;65576;47.714;9.414;2023-07-29T06:23:00;3.78;;;2.20;;
76656;SDS011;65576;47.714;9.414;2023-07-29T06:25:27;2.38;;;2.00;;
76656;SDS011;65576;47.714;9.414;2023-07-29T06:27:52;2.95;;;2.15;;
76656;SDS011;65576;47.714;9.414;2023-07-29T06:30:17;3.28;;;2.25;;
76656;SDS011;65576;47.714;9.414;2023-07-29T06:32:42;2.95;;;2.05;;
76656;SDS011;65576;47.714;9.414;2023-07-29T06:35:08;4.18;;;1.80;;
76656;SDS011;65576;47.714;9.414;2023-07-29T06:37:33;2.50;;;1.88;;
76656;SDS011;65576;47.714;9.414;2023-07-29T06:39:58;2.78;;;2.13;;
76656;SDS011;65576;47.714;9.414;2023-07-29T06:42:24;3.13;;;1.98;;
76656;SDS011;65576;47.714;9.414;2023-07-29T06:44:49;4.20;;;2.33;;
76656;SDS011;65576;47.714;9.414;2023-07-29T06:47:14;3.15;;;2.00;;
76656;SDS011;65576;47.714;9.414;2023-07-29T06:49:40;4.57;;;2.35;;
76656;SDS011;65576;47.714;9.414;2023-07-29T06:52:05;3.00;;;2.15;;
76656;SDS011;65576;47.714;9.414;2023-07-29T06:54:30;2.80;;;2.03;;
76656;SDS011;65576;47.714;9.414;2023-07-29T06:56:56;4.25;;;1.90;;
76656;SDS011;65576;47.714;9.414;2023-07-29T06:59:21;5.13;;;2.40;;
76656;SDS011;65576;47.714;9.414;2023-07-29T07:01:47;4.10;;;2.60;;
76656;SDS011;65576;47.714;9.414;2023-07-29T07:04:12;3.72;;;2.20;;
76656;SDS011;65576;47.714;9.414;2023-07-29T07:06:37;3.92;;;1.95;;
76656;SDS011;65576;47.714;9.414;2023-07-29T07:09:03;3.63;;;2.30;;
76656;SDS011;65576;47.714;9.414;2023-07-29T07:11:28;3.25;;;2.22;;
76656;SDS011;65576;47.714;9.414;2023-07-29T07:13:53;2.20;;;1.75;;
76656;SDS011;65576;47.714;9.414;2023-07-29T07:16:19;3.72;;;2.08;;
76656;SDS011;65576;47.714;9.414;2023-07-29T07:18:44;4.38;;;2.08;;
76656;SDS011;65576;47.714;9.414;2023-07-29T07:21:09;2.55;;;2.05;;
76656;SDS011;65576;47.714;9.414;2023-07-29T07:23:35;3.05;;;2.00;;
76656;SDS011;65576;47.714;9.414;2023-07-29T07:26:01;2.63;;;1.90;;
76656;SDS011;65576;47.714;9.414;2023-07-29T07:28:26;3.17;;;2.20;;
76656;SDS011;65576;47.714;9.414;2023-07-29T07:30:51;2.97;;;1.85;;
76656;SDS011;65576;47.714;9.414;2023-07-29T07:33:17;8.50;;;2.40;;
76656;SDS011;65576;47.714;9.414;2023-07-29T07:35:42;2.40;;;1.80;;
76656;SDS011;65576;47.714;9.414;2023-07-29T07:38:08;2.25;;;1.70;;
76656;SDS011;65576;47.714;9.414;2023-07-29T07:40:34;3.53;;;2.03;;
76656;SDS011;65576;47.714;9.414;2023-07-29T07:43:00;3.58;;;1.90;;
76656;SDS011;65576;47.714;9.414;2023-07-29T07:45:26;3.40;;;1.83;;
76656;SDS011;65576;47.714;9.414;2023-07-29T07:47:51;3.10;;;2.10;;
76656;SDS011;65576;47.714;9.414;2023-07-29T07:50:18;3.00;;;2.03;;
76656;SDS011;65576;47.714;9.414;2023-07-29T07:52:43;6.03;;;2.25;;
76656;SDS011;65576;47.714;9.414;2023-07-29T07:55:09;2.20;;;1.67;;
76656;SDS011;65576;47.714;9.414;2023-07-29T07:57:34;3.60;;;1.80;;
76656;SDS011;65576;47.714;9.414;2023-07-29T07:59:59;2.72;;;1.80;;
76656;SDS011;65576;47.714;9.414;2023-07-29T08:02:24;2.50;;;1.90;;
76656;SDS011;65576;47.714;9.414;2023-07-29T08:04:50;3.03;;;2.00;;
76656;SDS011;65576;47.714;9.414;2023-07-29T08:07:15;2.70;;;1.80;;
76656;SDS011;65576;47.714;9.414;2023-07-29T08:09:40;2.90;;;2.10;;
76656;SDS011;65576;47.714;9.414;2023-07-29T08:12:06;3.38;;;1.80;;
76656;SDS011;65576;47.714;9.414;2023-07-29T08:14:31;2.60;;;1.85;;
76656;SDS011;65576;47.714;9.414;2023-07-29T08:16:58;3.33;;;2.30;;
76656;SDS011;65576;47.714;9.414;2023-07-29T08:19:23;2.88;;;1.60;;
76656;SDS011;65576;47.714;9.414;2023-07-29T08:21:48;6.90;;;2.13;;
76656;SDS011;65576;47.714;9.414;2023-07-29T08:24:14;3.22;;;2.10;;
76656;SDS011;65576;47.714;9.414;2023-07-29T08:26:39;3.72;;;2.08;;
76656;SDS011;65576;47.714;9.414;2023-07-29T08:29:04;2.83;;;2.30;;
76656;SDS011;65576;47.714;9.414;2023-07-29T08:31:29;2.60;;;2.10;;
76656;SDS011;65576;47.714;9.414;2023-07-29T08:33:58;3.70;;;2.55;;
76656;SDS011;65576;47.714;9.414;2023-07-29T08:36:24;4.28;;;2.38;;
76656;SDS011;65576;47.714;9.414;2023-07-29T08:38:49;3.40;;;2.10;;
76656;SDS011;65576;47.714;9.414;2023-07-29T08:41:29;4.35;;;2.05;;
76656;SDS011;65576;47.714;9.414;2023-07-29T08:44:02;2.50;;;1.75;;
76656;SDS011;65576;47.714;9.414;2023-07-29T08:46:38;3.00;;;2.00;;
76656;SDS011;65576;47.714;9.414;2023-07-29T08:49:04;3.30;;;2.50;;
76656;SDS011;65576;47.714;9.414;2023-07-29T08:51:31;3.17;;;2.10;;
76656;SDS011;65576;47.714;9.414;2023-07-29T08:53:56;3.80;;;2.08;;
76656;SDS011;65576;47.714;9.414;2023-07-29T08:56:24;3.33;;;1.83;;
76656;SDS011;65576;47.714;9.414;2023-07-29T08:58:49;6.30;;;2.15;;
76656;SDS011;65576;47.714;9.414;2023-07-29T09:01:14;4.28;;;2.08;;
76656;SDS011;65576;47.714;9.414;2023-07-29T09:03:40;3.92;;;2.05;;
76656;SDS011;65576;47.714;9.414;2023-07-29T09:06:06;4.15;;;2.28;;
76656;SDS011;65576;47.714;9.414;2023-07-29T09:08:32;4.45;;;2.30;;
76656;SDS011;65576;47.714;9.414;2023-07-29T09:10:57;2.35;;;1.98;;
76656;SDS011;65576;47.714;9.414;2023-07-29T09:13:22;2.67;;;2.13;;
76656;SDS011;65576;47.714;9.414;2023-07-29T09:15:48;3.33;;;2.22;;
76656;SDS011;65576;47.714;9.414;2023-07-29T09:18:17;2.85;;;2.10;;
76656;SDS011;65576;47.714;9.414;2023-07-29T09:20:45;2.55;;;2.13;;
76656;SDS011;65576;47.714;9.414;2023-07-29T09:23:11;3.97;;;2.33;;
76656;SDS011;65576;47.714;9.414;2023-07-29T09:25:36;3.10;;;2.40;;
76656;SDS011;65576;47.714;9.414;2023-07-29T09:28:07;4.53;;;2.53;;
76656;SDS011;65576;47.714;9.414;2023-07-29T09:30:42;3.33;;;2.40;;
76656;SDS011;65576;47.714;9.414;2023-07-29T09:33:09;3.33;;;2.47;;
76656;SDS011;65576;47.714;9.414;2023-07-29T09:35:35;3.42;;;1.98;;
76656;SDS011;65576;47.714;9.414;2023-07-29T09:38:02;3.38;;;2.20;;
76656;SDS011;65576;47.714;9.414;2023-07-29T09:40:27;2.75;;;2.30;;
76656;SDS011;65576;47.714;9.414;2023-07-29T09:42:59;2.88;;;2.28;;
76656;SDS011;65576;47.714;9.414;2023-07-29T09:45:25;2.30;;;1.90;;
76656;SDS011;65576;47.714;9.414;2023-07-29T09:47:52;3.63;;;2.53;;
76656;SDS011;65576;47.714;9.414;2023-07-29T09:50:18;6.60;;;2.67;;
76656;SDS011;65576;47.714;9.414;2023-07-29T09:52:44;2.35;;;1.98;;
76656;SDS011;65576;47.714;9.414;2023-07-29T09:55:12;3.42;;;1.98;;
76656;SDS011;65576;47.714;9.414;2023-07-29T09:57:38;2.45;;;1.98;;
76656;SDS011;65576;47.714;9.414;2023-07-29T10:00:05;2.85;;;2.08;;
76656;SDS011;65576;47.714;9.414;2023-07-29T10:02:35;3.35;;;2.05;;
76656;SDS011;65576;47.714;9.414;2023-07-29T10:05:02;3.60;;;1.98;;
76656;SDS011;65576;47.714;9.414;2023-07-29T10:07:28;3.58;;;2.03;;
76656;SDS011;65576;47.714;9.414;2023-07-29T10:09:54;3.55;;;2.25;;
76656;SDS011;65576;47.714;9.414;2023-07-29T10:12:20;2.72;;;2.10;;
76656;SDS011;65576;47.714;9.414;2023-07-29T10:14:46;2.25;;;1.75;;
76656;SDS011;65576;47.714;9.414;2023-07-29T10:17:13;2.55;;;2.00;;
76656;SDS011;65576;47.714;9.414;2023-07-29T10:19:40;4.60;;;2.28;;
76656;SDS011;65576;47.714;9.414;2023-07-29T10:22:07;2.80;;;2.15;;
76656;SDS011;65576;47.714;9.414;2023-07-29T10:24:33;2.33;;;2.00;;
76656;SDS011;65576;47.714;9.414;2023-07-29T10:27:00;3.03;;;2.40;;
76656;SDS011;65576;47.714;9.414;2023-07-29T10:29:38;3.15;;;1.80;;
76656;SDS011;65576;47.714;9.414;2023-07-29T10:32:04;4.25;;;2.03;;
76656;SDS011;65576;47.714;9.414;2023-07-29T10:34:30;5.55;;;2.20;;
76656;SDS011;65576;47.714;9.414;2023-07-29T10:36:56;3.00;;;2.03;;
76656;SDS011;65576;47.714;9.414;2023-07-29T10:39:24;3.72;;;2.25;;
76656;SDS011;65576;47.714;9.414;2023-07-29T10:49:40;3.15;;;1.85;;
76656;SDS011;65576;47.714;9.414;2023-07-29T10:52:06;8.15;;;1.85;;
76656;SDS011;65576;47.714;9.414;2023-07-29T10:54:31;5.57;;;1.90;;
76656;SDS011;65576;47.714;9.414;2023-07-29T10:57:07;1.92;;;1.35;;
76656;SDS011;65576;47.714;9.414;2023-07-29T10:59:32;2.65;;;1.70;;
76656;SDS011;65576;47.714;9.414;2023-07-29T11:01:59;2.80;;;1.70;;
76656;SDS011;65576;47.714;9.414;2023-07-29T11:04:26;2.83;;;1.98;;
76656;SDS011;65576;47.714;9.414;2023-07-29T11:17:36;3.38;;;1.92;;
76656;SDS011;65576;47.714;9.414;2023-07-29T11:20:06;2.10;;;1.35;;
76656;SDS011;65576;47.714;9.414;2023-07-29T11:22:35;2.08;;;1.65;;
76656;SDS011;65576;47.714;9.414;2023-07-29T11:25:01;2.20;;;1.90;;
76656;SDS011;65576;47.714;9.414;2023-07-29T11:27:26;3.58;;;1.58;;
76656;SDS011;65576;47.714;9.414;2023-07-29T11:30:02;4.13;;;1.92;;
76656;SDS011;65576;47.714;9.414;2023-07-29T11:32:30;2.25;;;1.80;;
76656;SDS011;65576;47.714;9.414;2023-07-29T11:34:56;2.65;;;1.85;;
76656;SDS011;65576;47.714;9.414;2023-07-29T11:37:21;2.00;;;1.80;;
76656;SDS011;65576;47.714;9.414;2023-07-29T11:39:46;2.63;;;1.45;;
76656;SDS011;65576;47.714;9.414;2023-07-29T11:42:12;2.50;;;1.70;;
76656;SDS011;65576;47.714;9.414;2023-07-29T11:44:38;2.20;;;1.70;;
76656;SDS011;65576;47.714;9.414;2023-07-29T11:47:07;2.28;;;1.88;;
76656;SDS011;65576;47.714;9.414;2023-07-29T11:49:37;2.92;;;1.63;;
76656;SDS011;65576;47.714;9.414;2023-07-29T11:52:06;1.70;;;1.50;;
76656;SDS011;65576;47.714;9.414;2023-07-29T11:54:33;2.00;;;1.48;;
76656;SDS011;65576;47.714;9.414;2023-07-29T11:57:00;2.85;;;1.67;;
76656;SDS011;65576;47.714;9.414;2023-07-29T11:59:25;1.88;;;1.50;;
76656;SDS011;65576;47.714;9.414;2023-07-29T12:01:52;2.33;;;1.55;;
76656;SDS011;65576;47.714;9.414;2023-07-29T12:04:18;2.03;;;1.52;;
76656;SDS011;65576;47.714;9.414;2023-07-29T12:06:43;2.08;;;1.48;;
76656;SDS011;65576;47.714;9.414;2023-07-29T12:09:09;2.90;;;1.60;;
76656;SDS011;65576;47.714;9.414;2023-07-29T12:11:34;1.95;;;1.58;;
76656;SDS011;65576;47.714;9.414;2023-07-29T12:14:00;2.38;;;1.50;;
76656;SDS011;65576;47.714;9.414;2023-07-29T12:16:25;3.03;;;2.20;;
76656;SDS011;65576;47.714;9.414;2023-07-29T12:18:51;3.33;;;2.17;;
76656;SDS011;65576;47.714;9.414;2023-07-29T12:21:17;4.80;;;3.50;;
76656;SDS011;65576;47.714;9.414;2023-07-29T12:23:43;5.82;;;3.33;;
76656;SDS011;65576;47.714;9.414;2023-07-29T12:26:09;6.90;;;4.63;;
76656;SDS011;65576;47.714;9.414;2023-07-29T12:28:34;6.57;;;3.40;;
76656;SDS011;65576;47.714;9.414;2023-07-29T12:30:59;4.57;;;3.25;;
76656;SDS011;65576;47.714;9.414;2023-07-29T12:33:31;2.95;;;2.15;;
76656;SDS011;65576;47.714;9.414;2023-07-29T12:35:57;8.63;;;3.17;;
76656;SDS011;65576;47.714;9.414;2023-07-29T12:38:25;4.38;;;3.40;;
76656;SDS011;65576;47.714;9.414;2023-07-29T12:40:51;3.88;;;2.80;;
76656;SDS011;65576;47.714;9.414;2023-07-29T12:43:16;3.42;;;2.25;;
76656;SDS011;65576;47.714;9.414;2023-07-29T12:45:41;2.35;;;1.48;;
76656;SDS011;65576;47.714;9.414;2023-07-29T12:48:07;3.58;;;2.25;;
76656;SDS011;65576;47.714;9.414;2023-07-29T12:50:33;2.40;;;1.63;;
76656;SDS011;65576;47.714;9.414;2023-07-29T12:52:58;1.60;;;1.30;;
76656;SDS011;65576;47.714;9.414;2023-07-29T12:55:23;3.42;;;1.42;;
76656;SDS011;65576;47.714;9.414;2023-07-29T12:57:49;1.85;;;1.42;;
76656;SDS011;65576;47.714;9.414;2023-07-29T13:00:15;2.83;;;1.40;;
76656;SDS011;65576;47.714;9.414;2023-07-29T13:02:40;2.22;;;1.25;;
76656;SDS011;65576;47.714;9.414;2023-07-29T13:05:07;1.30;;;1.10;;
76656;SDS011;65576;47.714;9.414;2023-07-29T13:07:37;1.65;;;1.45;;
76656;SDS011;65576;47.714;9.414;2023-07-29T13:10:03;3.25;;;1.33;;
76656;SDS011;65576;47.714;9.414;2023-07-29T13:12:29;1.58;;;1.23;;
76656;SDS011;65576;47.714;9.414;2023-07-29T13:14:54;2.38;;;1.65;;
76656;SDS011;65576;47.714;9.414;2023-07-29T13:17:20;1.50;;;1.25;;
76656;SDS011;65576;47.714;9.414;2023-07-29T13:19:46;1.65;;;1.30;;
76656;SDS011;65576;47.714;9.414;2023-07-29T13:22:12;1.42;;;1.33;;
76656;SDS011;65576;47.714;9.414;2023-07-29T13:24:37;1.50;;;1.30;;
76656;SDS011;65576;47.714;9.414;2023-07-29T13:27:02;1.83;;;1.45;;
76656;SDS011;65576;47.714;9.414;2023-07-29T13:29:28;2.28;;;1.35;;
76656;SDS011;65576;47.714;9.414;2023-07-29T13:31:53;4.50;;;1.38;;
76656;SDS011;65576;47.714;9.414;2023-07-29T13:34:18;1.90;;;1.50;;
76656;SDS011;65576;47.714;9.414;2023-07-29T13:36:44;1.70;;;1.20;;
76656;SDS011;65576;47.714;9.414;2023-07-29T13:39:09;3.60;;;1.83;;
76656;SDS011;65576;47.714;9.414;2023-07-29T13:41:34;2.17;;;1.27;;
76656;SDS011;65576;47.714;9.414;2023-07-29T13:44:00;2.75;;;1.65;;
76656;SDS011;65576;47.714;9.414;2023-07-29T13:46:25;1.85;;;1.45;;
76656;SDS011;65576;47.714;9.414;2023-07-29T13:48:50;2.92;;;1.80;;
76656;SDS011;65576;47.714;9.414;2023-07-29T13:51:15;2.70;;;1.90;;
76656;SDS011;65576;47.714;9.414;2023-07-29T13:53:41;2.63;;;1.88;;
76656;SDS011;65576;47.714;9.414;2023-07-29T13:56:06;2.97;;;1.80;;
76656;SDS011;65576;47.714;9.414;2023-07-29T13:58:31;3.33;;;1.50;;
76656;SDS011;65576;47.714;9.414;2023-07-29T14:00:57;3.90;;;2.50;;
76656;SDS011;65576;47.714;9.414;2023-07-29T14:03:22;4.43;;;2.80;;
76656;SDS011;65576;47.714;9.414;2023-07-29T14:05:47;2.47;;;2.13;;
76656;SDS011;65576;47.714;9.414;2023-07-29T14:08:13;1.95;;;1.42;;
76656;SDS011;65576;47.714;9.414;2023-07-29T14:10:38;2.67;;;1.73;;
76656;SDS011;65576;47.714;9.414;2023-07-29T14:13:03;4.15;;;1.50;;
76656;SDS011;65576;47.714;9.414;2023-07-29T14:15:28;1.40;;;1.30;;
76656;SDS011;65576;47.714;9.414;2023-07-29T14:17:54;1.85;;;1.38;;
76656;SDS011;65576;47.714;9.414;2023-07-29T14:20:19;3.15;;;1.40;;
76656;SDS011;65576;47.714;9.414;2023-07-29T14:22:44;2.25;;;1.63;;
76656;SDS011;65576;47.714;9.414;2023-07-29T14:25:10;6.05;;;1.85;;
76656;SDS011;65576;47.714;9.414;2023-07-29T14:27:35;3.72;;;1.77;;
76656;SDS011;65576;47.714;9.414;2023-07-29T14:30:01;5.32;;;1.90;;
76656;SDS011;65576;47.714;9.414;2023-07-29T14:32:27;6.70;;;2.20;;
76656;SDS011;65576;47.714;9.414;2023-07-29T14:34:52;5.13;;;1.80;;
76656;SDS011;65576;47.714;9.414;2023-07-29T14:37:17;3.15;;;1.83;;
76656;SDS011;65576;47.714;9.414;2023-07-29T14:39:43;3.35;;;1.55;;
76656;SDS011;65576;47.714;9.414;2023-07-29T14:42:08;1.27;;;1.17;;
76656;SDS011;65576;47.714;9.414;2023-07-29T14:44:33;3.22;;;1.38;;
76656;SDS011;65576;47.714;9.414;2023-07-29T14:46:59;2.10;;;1.85;;
76656;SDS011;65576;47.714;9.414;2023-07-29T14:49:24;2.88;;;1.85;;
76656;SDS011;65576;47.714;9.414;2023-07-29T14:51:49;1.88;;;1.40;;
76656;SDS011;65576;47.714;9.414;2023-07-29T14:54:15;2.33;;;1.52;;
76656;SDS011;65576;47.714;9.414;2023-07-29T14:56:40;2.70;;;1.55;;
76656;SDS011;65576;47.714;9.414;2023-07-29T14:59:05;2.78;;;1.90;;
76656;SDS011;65576;47.714;9.414;2023-07-29T15:01:31;5.03;;;1.73;;
76656;SDS011;65576;47.714;9.414;2023-07-29T15:03:56;2.63;;;1.83;;